CheckWX is a tool to help pilots better visualize weather data.  It is not intended as a substitute for an official pre-flight weather briefing.

06:49:16 UTC

PAOM TAF
Nome Airport
Nome, Alaska, USA
PAOM 111140Z 1112/1212 33011KT P6SM SKC

Jul-11@
12:00 UTC

Jul-11 @ 12:00 UTC

Jul-12@
12:00 UTC

Jul-12 @ 12:00 UTC

TAF PAOM 111140Z 1112/1212 33011KT P6SM SKC
Wind
  • 330° at 11 KTS
Cloud Levels
  • Clear skies